KB1EJH-7 messages


fromtotime message
WXBOT KB1EJH-7 07/27 19:53:05z Reply KOSH 271910Z 27007G15KT 10SM CLR 29/19 A2999 RMK AO2 T02890189 ${XS
KB1EJH-7 WXBOT 07/27 19:52:56z Send another kosh{23
WXBOT KB1EJH-7 06/01 00:26:56z Reply 3 Miles SE Lincoln DE. Tonight,Mostly Clear Low 52{ZP
KB1EJH-7 WXBOT 06/01 00:26:48z Send another w{09